createdAt,value
2017-12-30T00:01:19.493Z,1.20
2017-12-30T00:03:46.992Z,1.30
2017-12-30T00:06:14.455Z,1.30
2017-12-30T00:08:41.933Z,1.30
2017-12-30T00:11:10.268Z,1.30
2017-12-30T00:13:38.189Z,1.40
2017-12-30T00:16:06.523Z,1.50
2017-12-30T00:18:33.986Z,1.40
2017-12-30T00:21:02.500Z,1.40
2017-12-30T00:23:30.763Z,1.40
2017-12-30T00:25:58.234Z,1.50
2017-12-30T00:28:25.705Z,1.50
2017-12-30T00:30:53.171Z,1.60
2017-12-30T00:33:20.630Z,1.60
2017-12-30T00:35:48.084Z,1.40
2017-12-30T00:38:15.545Z,1.40
2017-12-30T00:40:43.008Z,1.30
2017-12-30T00:43:10.485Z,1.20
2017-12-30T00:45:38.334Z,1.00
2017-12-30T00:48:06.223Z,1.00
2017-12-30T00:50:34.582Z,1.00
2017-12-30T00:53:02.370Z,1.00
2017-12-30T00:55:29.842Z,1.10
2017-12-30T00:57:57.310Z,1.00
2017-12-30T01:00:24.772Z,1.00
2017-12-30T01:02:52.232Z,1.10
2017-12-30T01:05:19.681Z,1.10
2017-12-30T01:07:48.035Z,1.10
2017-12-30T01:10:15.481Z,1.10
2017-12-30T01:12:42.932Z,1.30
2017-12-30T01:15:10.754Z,1.40
2017-12-30T01:17:38.221Z,1.40
2017-12-30T01:20:05.657Z,1.50
2017-12-30T01:22:33.096Z,1.60
2017-12-30T01:25:00.541Z,1.70
2017-12-30T01:27:27.969Z,1.80
2017-12-30T01:29:55.816Z,1.80
2017-12-30T01:32:23.249Z,1.80
2017-12-30T01:34:50.682Z,1.80
2017-12-30T01:37:18.113Z,1.90
2017-12-30T01:39:45.959Z,2.00
2017-12-30T01:42:13.392Z,2.00
2017-12-30T01:44:40.825Z,2.00
2017-12-30T01:47:08.250Z,2.10
2017-12-30T01:49:36.084Z,2.10
2017-12-30T01:52:03.524Z,2.10
2017-12-30T01:54:30.956Z,2.10
2017-12-30T01:56:58.404Z,2.10
2017-12-30T01:59:25.828Z,2.10
2017-12-30T02:01:53.657Z,2.10
2017-12-30T02:04:21.095Z,2.10
2017-12-30T02:06:54.522Z,2.10
2017-12-30T02:09:21.961Z,2.10
2017-12-30T02:11:49.388Z,2.00
2017-12-30T02:14:16.832Z,2.10
2017-12-30T02:16:44.661Z,2.10
2017-12-30T02:19:12.095Z,2.00
2017-12-30T02:21:39.525Z,2.10
2017-12-30T02:24:07.847Z,2.00
2017-12-30T02:26:35.251Z,2.20
2017-12-30T02:29:02.679Z,2.20
2017-12-30T02:31:30.126Z,2.20
2017-12-30T02:33:57.566Z,2.10
2017-12-30T02:36:25.006Z,2.10
2017-12-30T02:38:52.490Z,2.20
2017-12-30T02:41:19.934Z,2.20
2017-12-30T02:43:47.373Z,2.20
2017-12-30T02:46:15.772Z,2.20
2017-12-30T02:48:43.209Z,2.20
2017-12-30T02:51:10.654Z,2.30
2017-12-30T02:53:38.107Z,2.30
2017-12-30T02:56:06.406Z,2.40
2017-12-30T02:58:33.878Z,2.50
2017-12-30T03:01:01.321Z,2.50
2017-12-30T03:03:28.769Z,2.50
2017-12-30T03:05:56.225Z,2.50
2017-12-30T03:08:24.602Z,2.50
2017-12-30T03:10:52.045Z,2.50
2017-12-30T03:13:19.490Z,2.50
2017-12-30T03:15:47.347Z,2.50
2017-12-30T03:18:15.184Z,2.50
2017-12-30T03:20:42.650Z,2.50
2017-12-30T03:23:10.082Z,2.50
2017-12-30T03:25:37.533Z,2.50
2017-12-30T03:28:05.831Z,2.50
2017-12-30T03:30:33.338Z,2.50
2017-12-30T03:33:00.782Z,2.50
2017-12-30T03:35:28.609Z,2.50
2017-12-30T03:37:56.050Z,2.50
2017-12-30T03:40:23.491Z,2.50
2017-12-30T03:42:50.948Z,2.60
2017-12-30T03:45:18.405Z,2.60
2017-12-30T03:47:45.861Z,2.60
2017-12-30T03:50:13.318Z,2.60
2017-12-30T03:52:40.792Z,2.70
2017-12-30T03:55:08.228Z,2.80
2017-12-30T03:57:36.544Z,2.80
2017-12-30T04:00:03.995Z,2.80
2017-12-30T04:02:31.437Z,2.80
2017-12-30T04:04:58.881Z,2.90
2017-12-30T04:07:27.257Z,2.80
2017-12-30T04:09:54.710Z,2.90
2017-12-30T04:12:22.145Z,2.80
2017-12-30T04:14:50.001Z,2.80
2017-12-30T04:17:17.429Z,2.80
2017-12-30T04:19:44.865Z,2.80
2017-12-30T04:22:12.317Z,2.80
2017-12-30T04:24:39.759Z,2.70
2017-12-30T04:27:07.209Z,2.70
2017-12-30T04:29:34.647Z,2.70
2017-12-30T04:32:02.477Z,2.70
2017-12-30T04:34:29.918Z,2.70
2017-12-30T04:36:57.347Z,2.70
2017-12-30T04:39:24.793Z,2.60
2017-12-30T04:41:52.222Z,2.60
2017-12-30T04:44:20.584Z,2.70
2017-12-30T04:46:47.977Z,2.70
2017-12-30T04:49:15.811Z,2.60
2017-12-30T04:51:43.257Z,2.60
2017-12-30T04:54:11.565Z,2.60
2017-12-30T04:56:39.431Z,2.70
2017-12-30T04:59:08.282Z,2.70
2017-12-30T05:01:35.711Z,2.70
2017-12-30T05:04:03.149Z,2.80
2017-12-30T05:06:30.585Z,2.80
2017-12-30T05:08:58.418Z,2.80
2017-12-30T05:11:25.857Z,2.80
2017-12-30T05:13:53.298Z,2.80
2017-12-30T05:16:20.730Z,2.90
2017-12-30T05:18:50.517Z,2.90
2017-12-30T05:21:17.951Z,2.90
2017-12-30T05:23:45.395Z,2.90
2017-12-30T05:26:12.834Z,2.80
2017-12-30T05:28:40.266Z,2.80
2017-12-30T05:31:08.129Z,2.80
2017-12-30T05:33:35.549Z,2.80
2017-12-30T05:36:02.992Z,2.70
2017-12-30T05:38:30.425Z,2.80
2017-12-30T05:40:58.734Z,2.80
2017-12-30T05:43:26.177Z,2.80
2017-12-30T05:45:53.631Z,2.80
2017-12-30T05:48:21.090Z,2.80
2017-12-30T05:50:48.526Z,2.90
2017-12-30T05:53:16.005Z,2.90
2017-12-30T05:55:43.436Z,3.00
2017-12-30T05:58:11.757Z,3.00
2017-12-30T06:00:39.278Z,3.00
2017-12-30T06:03:06.746Z,3.00
2017-12-30T06:05:35.070Z,3.10
2017-12-30T06:08:02.513Z,3.10
2017-12-30T06:10:29.942Z,3.10
2017-12-30T06:12:58.333Z,3.10
2017-12-30T06:15:25.778Z,3.20
2017-12-30T06:17:53.217Z,3.20
2017-12-30T06:20:21.537Z,3.20
2017-12-30T06:22:48.962Z,3.20
2017-12-30T06:25:16.426Z,3.20
2017-12-30T06:27:43.880Z,3.20
2017-12-30T06:30:11.301Z,3.20
2017-12-30T06:32:39.139Z,3.20
2017-12-30T06:35:07.444Z,3.20
2017-12-30T06:37:35.279Z,3.20
2017-12-30T06:40:04.689Z,3.20
2017-12-30T06:42:32.113Z,3.20
2017-12-30T06:44:59.581Z,3.20
2017-12-30T06:47:27.010Z,3.20
2017-12-30T06:49:54.433Z,3.20
2017-12-30T06:52:23.161Z,3.20
2017-12-30T06:54:50.590Z,3.20
2017-12-30T06:57:18.419Z,3.30
2017-12-30T06:59:45.881Z,3.30
2017-12-30T07:02:13.673Z,3.30
2017-12-30T07:04:43.456Z,3.40
2017-12-30T07:07:10.880Z,3.40
2017-12-30T07:09:38.332Z,3.30
2017-12-30T07:12:05.764Z,3.40
2017-12-30T07:14:33.592Z,3.50
2017-12-30T07:17:01.981Z,3.50
2017-12-30T07:19:30.276Z,3.50
2017-12-30T07:21:58.098Z,3.50
2017-12-30T07:24:26.452Z,3.50
2017-12-30T07:26:53.888Z,3.60
2017-12-30T07:29:21.313Z,3.60
2017-12-30T07:31:48.749Z,3.60
2017-12-30T07:34:16.182Z,3.70
2017-12-30T07:36:43.603Z,3.60
2017-12-30T07:39:11.456Z,3.70
2017-12-30T07:41:38.876Z,3.70
2017-12-30T07:44:06.340Z,3.70
2017-12-30T07:46:33.770Z,3.70
2017-12-30T07:49:01.200Z,3.70
2017-12-30T07:51:29.034Z,3.70
2017-12-30T07:53:57.400Z,3.70
2017-12-30T07:56:24.850Z,3.70
2017-12-30T07:58:52.317Z,3.70
2017-12-30T08:01:19.772Z,3.70
2017-12-30T08:03:47.264Z,3.70
2017-12-30T08:06:14.719Z,3.80
2017-12-30T08:08:43.075Z,3.80
2017-12-30T08:11:10.533Z,3.80
2017-12-30T08:13:37.977Z,3.80
2017-12-30T08:16:05.433Z,3.80
2017-12-30T08:18:36.635Z,3.80
2017-12-30T08:21:05.666Z,3.80
2017-12-30T08:23:33.089Z,3.80
2017-12-30T08:26:02.545Z,3.80
2017-12-30T08:28:30.532Z,3.80
2017-12-30T08:30:58.841Z,3.90
2017-12-30T08:33:26.319Z,3.90
2017-12-30T08:35:53.750Z,3.90
2017-12-30T08:38:21.242Z,3.90
2017-12-30T08:40:48.733Z,4.00
2017-12-30T08:43:18.140Z,4.00
2017-12-30T08:45:45.981Z,4.20
2017-12-30T08:48:16.077Z,4.20
2017-12-30T08:50:43.519Z,4.10
2017-12-30T08:53:11.011Z,4.20
2017-12-30T08:55:38.474Z,4.10
2017-12-30T08:58:05.928Z,4.10
2017-12-30T09:00:34.251Z,4.20
2017-12-30T09:03:01.686Z,4.30
2017-12-30T09:05:30.004Z,4.30
2017-12-30T09:07:57.447Z,4.30
2017-12-30T09:10:24.902Z,4.30
2017-12-30T09:12:54.293Z,4.30
2017-12-30T09:15:22.141Z,4.30
2017-12-30T09:17:49.587Z,4.30
2017-12-30T09:20:17.090Z,4.30
2017-12-30T09:22:44.526Z,4.30
2017-12-30T09:25:11.983Z,4.40
2017-12-30T09:27:39.810Z,4.50
2017-12-30T09:30:08.032Z,4.50
2017-12-30T09:32:35.865Z,4.50
2017-12-30T09:35:03.302Z,4.50
2017-12-30T09:37:30.770Z,4.50
2017-12-30T09:39:58.213Z,4.50
2017-12-30T09:42:25.670Z,4.60
2017-12-30T09:44:53.109Z,4.60
2017-12-30T09:47:20.562Z,4.60
2017-12-30T09:49:48.862Z,4.60
2017-12-30T09:52:16.308Z,4.60
2017-12-30T09:54:43.753Z,4.70
2017-12-30T09:57:11.193Z,4.70
2017-12-30T09:59:38.638Z,4.60
2017-12-30T10:02:06.471Z,4.80
2017-12-30T10:04:33.913Z,4.80
2017-12-30T10:07:01.372Z,4.70
2017-12-30T10:09:29.682Z,4.80
2017-12-30T10:11:57.517Z,4.80
2017-12-30T10:14:25.821Z,4.80
2017-12-30T10:16:53.269Z,4.80
2017-12-30T10:19:20.711Z,4.90
2017-12-30T10:21:48.150Z,4.90
2017-12-30T10:24:15.605Z,4.90
2017-12-30T10:26:43.050Z,4.90
2017-12-30T10:29:10.473Z,4.90
2017-12-30T10:31:38.320Z,4.90
2017-12-30T10:34:05.746Z,4.90
2017-12-30T10:36:33.190Z,4.90
2017-12-30T10:39:00.648Z,4.90
2017-12-30T10:41:29.881Z,4.90
2017-12-30T10:43:57.322Z,5.00
2017-12-30T10:46:25.703Z,5.00
2017-12-30T10:48:53.151Z,5.00
2017-12-30T10:51:20.594Z,5.10
2017-12-30T10:53:49.019Z,5.10
2017-12-30T10:56:16.470Z,5.10
2017-12-30T10:58:43.925Z,5.10
2017-12-30T11:01:11.365Z,5.20
2017-12-30T11:03:39.214Z,5.30
2017-12-30T11:06:06.661Z,5.30
2017-12-30T11:08:34.106Z,5.30
2017-12-30T11:13:47.115Z,5.40
2017-12-30T11:16:14.554Z,5.40
2017-12-30T11:18:42.010Z,5.50
2017-12-30T11:21:09.456Z,5.50
2017-12-30T11:23:36.889Z,5.50
2017-12-30T11:26:04.347Z,5.50
2017-12-30T11:28:31.790Z,5.50
2017-12-30T11:30:59.251Z,5.50
2017-12-30T11:33:27.570Z,5.60
2017-12-30T11:35:57.011Z,5.60
2017-12-30T11:38:24.838Z,5.70
2017-12-30T11:40:52.270Z,5.70
2017-12-30T11:43:19.720Z,5.80
2017-12-30T11:45:47.146Z,5.90
2017-12-30T11:48:14.982Z,6.00
2017-12-30T11:50:42.419Z,5.90
2017-12-30T11:53:09.872Z,6.00
2017-12-30T11:55:37.307Z,6.10
2017-12-30T11:58:04.744Z,6.10
2017-12-30T12:00:33.479Z,6.20
2017-12-30T12:03:00.915Z,6.20
2017-12-30T12:05:28.370Z,6.30
2017-12-30T12:07:55.814Z,6.30
2017-12-30T12:10:24.178Z,6.30
2017-12-30T12:12:52.890Z,6.50
2017-12-30T12:15:20.348Z,6.50
2017-12-30T12:17:47.778Z,6.40
2017-12-30T12:20:15.605Z,6.50
2017-12-30T12:22:45.006Z,6.50
2017-12-30T12:25:12.445Z,6.50
2017-12-30T12:27:40.853Z,6.50
2017-12-30T12:30:08.293Z,6.50
2017-12-30T12:32:35.729Z,6.60
2017-12-30T12:35:04.078Z,6.70
2017-12-30T12:37:31.527Z,6.60
2017-12-30T12:39:59.354Z,6.70
2017-12-30T12:42:26.789Z,6.70
2017-12-30T12:44:54.241Z,6.70
2017-12-30T12:47:21.678Z,6.70
2017-12-30T12:49:49.149Z,6.70
2017-12-30T12:52:16.561Z,6.70
2017-12-30T12:54:44.393Z,6.70
2017-12-30T12:57:11.817Z,6.70
2017-12-30T12:59:39.267Z,6.70
2017-12-30T13:02:06.722Z,6.70
2017-12-30T13:04:34.154Z,6.70
2017-12-30T13:07:02.906Z,6.70
2017-12-30T13:09:31.270Z,6.70
2017-12-30T13:11:58.711Z,6.80
2017-12-30T13:14:26.154Z,6.80
2017-12-30T13:16:53.609Z,6.90
2017-12-30T13:19:21.057Z,6.90
2017-12-30T13:21:48.899Z,6.90
2017-12-30T13:24:16.333Z,6.90
2017-12-30T13:26:43.828Z,7.00
2017-12-30T13:29:11.232Z,7.00
2017-12-30T13:31:38.664Z,7.00
2017-12-30T13:34:06.106Z,7.10
2017-12-30T13:36:33.950Z,7.20
2017-12-30T13:39:02.305Z,7.10
2017-12-30T13:41:29.739Z,7.20
2017-12-30T13:44:01.060Z,7.20
2017-12-30T13:46:29.077Z,7.30
2017-12-30T13:48:58.012Z,7.30
2017-12-30T13:51:25.639Z,7.40
2017-12-30T13:53:53.555Z,7.40
2017-12-30T13:56:21.413Z,7.60
2017-12-30T13:58:51.824Z,7.60
2017-12-30T14:01:19.467Z,7.60
2017-12-30T14:03:46.910Z,7.60
2017-12-30T14:06:14.496Z,7.50
2017-12-30T14:08:41.955Z,7.50
2017-12-30T14:11:09.435Z,7.30
2017-12-30T14:13:37.883Z,7.20
2017-12-30T14:16:05.342Z,7.20
2017-12-30T14:18:33.711Z,7.10
2017-12-30T14:21:01.275Z,7.10
2017-12-30T14:23:28.856Z,7.00
2017-12-30T14:25:57.462Z,7.10
2017-12-30T14:28:25.307Z,7.10
2017-12-30T14:30:53.149Z,7.10
2017-12-30T14:33:20.604Z,7.10
2017-12-30T14:35:48.051Z,7.10
2017-12-30T14:38:15.501Z,7.00
2017-12-30T14:40:42.958Z,7.10
2017-12-30T14:43:10.413Z,7.10
2017-12-30T14:45:37.866Z,7.20
2017-12-30T14:48:05.299Z,7.30
2017-12-30T14:50:32.746Z,7.30
2017-12-30T14:53:01.458Z,7.40
2017-12-30T14:55:28.910Z,7.40
2017-12-30T14:57:57.313Z,7.40
2017-12-30T15:00:24.753Z,7.50
2017-12-30T15:02:52.214Z,7.40
2017-12-30T15:05:19.670Z,7.50
2017-12-30T15:07:47.128Z,7.40
2017-12-30T15:10:14.985Z,7.40
2017-12-30T15:12:43.708Z,7.30
2017-12-30T15:15:11.166Z,7.20
2017-12-30T15:17:38.621Z,7.20
2017-12-30T15:20:07.039Z,7.20
2017-12-30T15:22:34.468Z,7.20
2017-12-30T15:25:03.905Z,7.20
2017-12-30T15:27:31.742Z,7.20
2017-12-30T15:29:59.199Z,7.10
2017-12-30T15:32:26.687Z,7.10
2017-12-30T15:34:54.534Z,7.20
2017-12-30T15:37:24.346Z,7.20
2017-12-30T15:39:53.143Z,7.20
2017-12-30T15:42:21.024Z,7.20
2017-12-30T15:44:49.751Z,7.30
2017-12-30T15:47:17.239Z,7.30
2017-12-30T15:49:44.709Z,7.30
2017-12-30T15:52:12.546Z,7.40
2017-12-30T15:54:40.124Z,7.40
2017-12-30T15:57:07.558Z,7.50
2017-12-30T15:59:35.034Z,7.60
2017-12-30T16:02:02.523Z,7.60
2017-12-30T16:04:30.837Z,7.70
2017-12-30T16:06:58.294Z,7.70
2017-12-30T16:09:25.743Z,7.90
2017-12-30T16:11:53.180Z,8.00
2017-12-30T16:14:20.644Z,8.00
2017-12-30T16:16:48.077Z,8.10
2017-12-30T16:19:15.525Z,8.20
2017-12-30T16:21:43.427Z,8.40
2017-12-30T16:24:10.868Z,8.40
2017-12-30T16:26:38.292Z,8.60
2017-12-30T16:29:06.138Z,9.00
2017-12-30T16:31:33.580Z,9.00
2017-12-30T16:34:01.022Z,9.10
2017-12-30T16:36:28.479Z,9.30
2017-12-30T16:38:55.916Z,9.30
2017-12-30T16:41:23.376Z,9.30
2017-12-30T16:43:51.717Z,9.30
2017-12-30T16:46:19.172Z,9.40
2017-12-30T16:48:46.621Z,9.40
2017-12-30T16:51:14.057Z,9.50
2017-12-30T16:53:41.498Z,9.50
2017-12-30T16:56:09.005Z,9.50
2017-12-30T16:58:36.519Z,9.50
2017-12-30T17:01:04.903Z,9.40
2017-12-30T17:03:32.380Z,9.40
2017-12-30T17:06:00.730Z,9.40
2017-12-30T17:08:28.201Z,9.50
2017-12-30T17:10:55.646Z,9.60
2017-12-30T17:13:24.143Z,9.60
2017-12-30T17:15:51.589Z,9.70
2017-12-30T17:18:19.061Z,9.60
2017-12-30T17:20:47.498Z,9.50
2017-12-30T17:23:14.908Z,9.40
2017-12-30T17:25:42.401Z,9.40
2017-12-30T17:28:11.138Z,9.50
2017-12-30T17:30:38.592Z,9.50
2017-12-30T17:33:06.033Z,9.60
2017-12-30T17:35:34.382Z,9.50
2017-12-30T17:38:02.658Z,9.40
2017-12-30T17:40:30.129Z,9.50
2017-12-30T17:42:57.583Z,9.40
2017-12-30T17:45:25.411Z,9.40
2017-12-30T17:47:53.835Z,9.40
2017-12-30T17:50:21.285Z,9.40
2017-12-30T17:52:49.996Z,9.40
2017-12-30T17:55:17.445Z,9.50
2017-12-30T17:57:51.729Z,9.40
2017-12-30T18:00:19.595Z,9.40
2017-12-30T18:02:47.454Z,9.30
2017-12-30T18:05:15.302Z,9.30
2017-12-30T18:07:42.759Z,9.30
2017-12-30T18:10:10.211Z,9.30
2017-12-30T18:12:37.669Z,9.30
2017-12-30T18:15:05.121Z,9.30
2017-12-30T18:17:33.713Z,9.30
2017-12-30T18:20:01.282Z,9.20
2017-12-30T18:22:29.637Z,9.20
2017-12-30T18:24:57.164Z,9.30
2017-12-30T18:27:25.975Z,9.30
2017-12-30T18:29:53.433Z,9.30
2017-12-30T18:32:21.598Z,9.30
2017-12-30T18:34:50.089Z,9.30
2017-12-30T18:37:17.529Z,9.20
2017-12-30T18:39:44.998Z,9.30
2017-12-30T18:42:12.483Z,9.40
2017-12-30T18:44:39.911Z,9.40
2017-12-30T18:47:07.389Z,9.40
2017-12-30T18:49:35.816Z,9.40
2017-12-30T18:52:04.269Z,9.40
2017-12-30T18:54:31.748Z,9.40
2017-12-30T18:57:00.015Z,9.50
2017-12-30T18:59:27.884Z,9.50
2017-12-30T19:01:55.937Z,9.50
2017-12-30T19:04:23.786Z,9.50
2017-12-30T19:06:51.282Z,9.50
2017-12-30T19:09:20.093Z,9.60
2017-12-30T19:11:47.574Z,9.60
2017-12-30T19:14:15.023Z,9.50
2017-12-30T19:16:42.598Z,9.60
2017-12-30T19:19:11.358Z,9.70
2017-12-30T19:21:38.810Z,9.70
2017-12-30T19:24:06.333Z,9.70
2017-12-30T19:26:34.193Z,9.70
2017-12-30T19:29:01.694Z,9.70
2017-12-30T19:31:29.235Z,9.70
2017-12-30T19:33:57.309Z,9.70
2017-12-30T19:36:25.789Z,9.70
2017-12-30T19:38:53.622Z,9.80
2017-12-30T19:41:21.109Z,9.80
2017-12-30T19:43:48.945Z,9.80
2017-12-30T19:46:16.463Z,9.80
2017-12-30T19:48:43.948Z,9.80
2017-12-30T19:51:11.390Z,9.80
2017-12-30T19:53:38.841Z,9.80
2017-12-30T19:56:06.305Z,9.90
2017-12-30T19:58:33.760Z,9.90
2017-12-30T20:01:03.875Z,9.90
2017-12-30T20:03:31.337Z,10.00
2017-12-30T20:05:58.812Z,10.00
2017-12-30T20:08:26.266Z,10.00
2017-12-30T20:10:53.719Z,10.00
2017-12-30T20:13:22.195Z,10.00
2017-12-30T20:15:49.743Z,9.90
2017-12-30T20:18:17.149Z,10.00
2017-12-30T20:20:44.625Z,10.00
2017-12-30T20:23:12.094Z,10.00
2017-12-30T20:25:39.581Z,10.00
2017-12-30T20:28:07.028Z,10.00
2017-12-30T20:30:34.707Z,10.00
2017-12-30T20:33:04.369Z,10.00
2017-12-30T20:35:33.494Z,10.00
2017-12-30T20:38:00.966Z,10.00
2017-12-30T20:40:28.512Z,10.00
2017-12-30T20:42:56.418Z,10.00
2017-12-30T20:45:25.532Z,10.00
2017-12-30T20:47:54.282Z,10.00
2017-12-30T20:50:21.835Z,10.00
2017-12-30T20:52:52.990Z,10.00
2017-12-30T20:55:20.498Z,10.00
2017-12-30T20:57:49.229Z,10.10
2017-12-30T21:00:16.951Z,10.10
2017-12-30T21:02:44.409Z,10.10
2017-12-30T21:05:12.683Z,10.10
2017-12-30T21:07:40.580Z,10.20
2017-12-30T21:10:08.078Z,10.20
2017-12-30T21:12:35.668Z,10.20
2017-12-30T21:15:03.487Z,10.20
2017-12-30T21:17:32.505Z,10.20
2017-12-30T21:20:00.396Z,10.20
2017-12-30T21:22:27.942Z,10.20
2017-12-30T21:24:55.795Z,10.20
2017-12-30T21:27:23.365Z,10.20
2017-12-30T21:29:51.279Z,10.20
2017-12-30T21:32:18.800Z,10.20
2017-12-30T21:34:46.757Z,10.30
2017-12-30T21:37:14.671Z,10.40
2017-12-30T21:39:42.154Z,10.40
2017-12-30T21:42:09.840Z,10.40
2017-12-30T21:44:37.403Z,10.50
2017-12-30T21:47:04.951Z,10.40
2017-12-30T21:49:32.492Z,10.40
2017-12-30T21:52:00.429Z,10.40
2017-12-30T21:54:28.889Z,10.40
2017-12-30T21:56:57.729Z,10.40
2017-12-30T21:59:25.280Z,10.40
2017-12-30T22:01:52.874Z,10.30
2017-12-30T22:04:20.386Z,10.30
2017-12-30T22:06:49.177Z,10.30
2017-12-30T22:09:16.667Z,10.30
2017-12-30T22:11:46.541Z,10.10
2017-12-30T22:14:14.872Z,10.20
2017-12-30T22:16:43.420Z,10.10
2017-12-30T22:19:10.978Z,10.10
2017-12-30T22:21:38.455Z,10.00
2017-12-30T22:24:06.017Z,10.00
2017-12-30T22:26:33.549Z,10.00
2017-12-30T22:29:01.013Z,10.00
2017-12-30T22:31:28.498Z,10.00
2017-12-30T22:33:56.440Z,10.00
2017-12-30T22:36:24.329Z,10.00
2017-12-30T22:38:51.817Z,10.00
2017-12-30T22:41:19.877Z,10.10
2017-12-30T22:43:48.731Z,10.10
2017-12-30T22:46:16.411Z,10.10
2017-12-30T22:48:44.431Z,10.10
2017-12-30T22:51:11.995Z,10.10
2017-12-30T22:53:40.798Z,10.10
2017-12-30T22:56:08.379Z,10.20
2017-12-30T22:58:35.949Z,10.20
2017-12-30T23:01:07.978Z,10.10
2017-12-30T23:03:35.541Z,10.10
2017-12-30T23:06:03.052Z,10.10
2017-12-30T23:08:30.926Z,10.10
2017-12-30T23:10:58.407Z,10.20
2017-12-30T23:13:25.922Z,10.10
2017-12-30T23:15:53.796Z,10.20
2017-12-30T23:18:21.679Z,10.20
2017-12-30T23:20:49.199Z,10.20
2017-12-30T23:23:16.690Z,10.20
2017-12-30T23:25:44.597Z,10.20
2017-12-30T23:28:13.073Z,10.30
2017-12-30T23:30:40.566Z,10.30
2017-12-30T23:33:08.036Z,10.20
2017-12-30T23:35:36.810Z,10.30
2017-12-30T23:38:04.291Z,10.30
2017-12-30T23:40:31.807Z,10.30
2017-12-30T23:43:00.115Z,10.30
2017-12-30T23:45:27.590Z,10.30
2017-12-30T23:47:55.483Z,10.20
2017-12-30T23:50:22.986Z,10.20
2017-12-30T23:52:50.533Z,10.30
2017-12-30T23:55:18.058Z,10.30
2017-12-30T23:57:45.612Z,10.20
